createdAt,value
2023-03-19T00:01:15.050Z,90.30
2023-03-19T00:03:45.829Z,90.30
2023-03-19T00:06:14.488Z,90.30
2023-03-19T00:08:43.211Z,90.30
2023-03-19T00:11:12.792Z,90.10
2023-03-19T00:13:41.575Z,90.30
2023-03-19T00:16:09.982Z,90.20
2023-03-19T00:18:38.781Z,90.30
2023-03-19T00:21:07.361Z,90.40
2023-03-19T00:23:36.983Z,90.40
2023-03-19T00:26:05.560Z,90.40
2023-03-19T00:28:34.346Z,90.40
2023-03-19T00:31:14.482Z,90.40
2023-03-19T00:33:43.451Z,90.40
2023-03-19T00:36:12.156Z,90.30
2023-03-19T00:38:42.312Z,90.40
2023-03-19T00:41:11.035Z,90.40
2023-03-19T00:43:39.847Z,90.40
2023-03-19T00:46:08.104Z,90.40
2023-03-19T00:48:36.795Z,90.50
2023-03-19T00:51:09.770Z,90.40
2023-03-19T00:53:43.534Z,90.50
2023-03-19T00:56:13.753Z,90.50
2023-03-19T00:58:42.502Z,90.50
2023-03-19T01:01:12.992Z,90.50
2023-03-19T01:03:42.223Z,90.50
2023-03-19T01:06:10.721Z,90.50
2023-03-19T01:08:39.341Z,90.50
2023-03-19T01:11:14.547Z,90.50
2023-03-19T01:13:43.441Z,90.50
2023-03-19T01:16:11.818Z,90.60
2023-03-19T01:18:40.886Z,90.60
2023-03-19T01:21:09.285Z,90.60
2023-03-19T01:23:44.448Z,90.60
2023-03-19T01:26:13.268Z,90.60
2023-03-19T01:28:43.619Z,90.60
2023-03-19T01:31:12.860Z,90.60
2023-03-19T01:33:42.910Z,90.60
2023-03-19T01:36:17.368Z,90.60
2023-03-19T01:38:58.211Z,90.60
2023-03-19T01:41:26.728Z,90.60
2023-03-19T01:43:59.551Z,90.60
2023-03-19T01:46:41.480Z,90.50
2023-03-19T01:49:36.737Z,90.60
2023-03-19T01:52:19.441Z,90.60
2023-03-19T01:55:14.218Z,90.60
2023-03-19T01:57:51.397Z,90.60
2023-03-19T02:00:38.457Z,90.50
2023-03-19T02:03:07.410Z,90.60
2023-03-19T02:05:36.856Z,90.60
2023-03-19T02:08:11.617Z,90.60
2023-03-19T02:10:41.677Z,90.50
2023-03-19T02:13:10.087Z,90.40
2023-03-19T02:15:38.944Z,90.50
2023-03-19T02:18:08.479Z,90.50
2023-03-19T02:21:06.296Z,90.50
2023-03-19T02:23:56.343Z,90.50
2023-03-19T02:26:43.605Z,90.40
2023-03-19T02:29:12.164Z,90.40
2023-03-19T02:31:41.664Z,90.40
2023-03-19T02:34:10.161Z,90.40
2023-03-19T02:36:49.434Z,90.40
2023-03-19T02:39:26.425Z,90.40
2023-03-19T02:41:55.188Z,90.40
2023-03-19T02:44:26.577Z,90.40
2023-03-19T02:46:55.440Z,90.40
2023-03-19T02:49:25.104Z,90.50
2023-03-19T02:51:53.852Z,90.40
2023-03-19T02:54:22.184Z,90.50
2023-03-19T02:56:52.779Z,90.50
2023-03-19T02:59:21.694Z,90.50
2023-03-19T03:01:51.135Z,90.60
2023-03-19T03:04:19.580Z,90.60
2023-03-19T03:06:48.440Z,90.60
2023-03-19T03:09:17.337Z,90.70
2023-03-19T03:11:46.290Z,90.70
2023-03-19T03:14:14.660Z,90.80
2023-03-19T03:16:43.489Z,90.80
2023-03-19T03:19:12.349Z,90.80
2023-03-19T03:21:41.463Z,90.90
2023-03-19T03:24:10.020Z,90.90
2023-03-19T03:26:39.300Z,90.90
2023-03-19T03:29:07.869Z,90.90
2023-03-19T03:31:36.802Z,90.90
2023-03-19T03:34:05.232Z,91.00
2023-03-19T03:36:34.065Z,91.00
2023-03-19T03:39:02.472Z,91.00
2023-03-19T03:41:31.741Z,91.00
2023-03-19T03:44:00.152Z,91.00
2023-03-19T03:46:29.150Z,91.10
2023-03-19T03:48:58.212Z,91.10
2023-03-19T03:51:26.991Z,91.10
2023-03-19T03:53:55.393Z,91.10
2023-03-19T03:56:24.054Z,91.20
2023-03-19T03:58:52.632Z,91.20
2023-03-19T04:01:21.622Z,91.50
2023-03-19T04:03:55.261Z,91.20
2023-03-19T04:06:24.610Z,91.30
2023-03-19T04:09:17.402Z,91.20
2023-03-19T04:11:46.273Z,91.20
2023-03-19T04:14:15.692Z,91.30
2023-03-19T04:16:44.612Z,91.40
2023-03-19T04:19:14.549Z,91.40
2023-03-19T04:21:43.215Z,91.30
2023-03-19T04:24:11.786Z,91.40
2023-03-19T04:26:40.963Z,91.40
2023-03-19T04:29:09.680Z,91.40
2023-03-19T04:31:39.449Z,91.40
2023-03-19T04:34:08.172Z,91.40
2023-03-19T04:36:36.949Z,91.40
2023-03-19T04:39:06.072Z,91.40
2023-03-19T04:41:35.548Z,91.50
2023-03-19T04:44:22.174Z,91.40
2023-03-19T04:46:50.998Z,91.40
2023-03-19T04:49:21.758Z,91.50
2023-03-19T04:51:52.738Z,91.40
2023-03-19T04:54:21.271Z,91.40
2023-03-19T04:56:50.537Z,91.40
2023-03-19T04:59:23.089Z,91.50
2023-03-19T05:01:53.028Z,91.40
2023-03-19T05:04:25.207Z,91.50
2023-03-19T05:06:58.498Z,91.50
2023-03-19T05:09:26.809Z,91.50
2023-03-19T05:11:56.767Z,91.50
2023-03-19T05:14:25.599Z,91.50
2023-03-19T05:17:11.378Z,91.50
2023-03-19T05:20:00.038Z,91.60
2023-03-19T05:22:29.097Z,91.60
2023-03-19T05:24:58.830Z,91.60
2023-03-19T05:27:29.167Z,91.60
2023-03-19T05:30:07.009Z,91.70
2023-03-19T05:33:00.147Z,91.70
2023-03-19T05:35:41.423Z,91.70
2023-03-19T05:38:20.952Z,91.80
2023-03-19T05:40:56.377Z,91.80
2023-03-19T05:43:37.824Z,91.80
2023-03-19T05:46:10.205Z,91.90
2023-03-19T05:48:39.407Z,91.90
2023-03-19T05:51:09.495Z,91.90
2023-03-19T05:53:42.657Z,91.90
2023-03-19T05:56:46.180Z,92.00
2023-03-19T05:59:41.005Z,92.00
2023-03-19T06:02:28.024Z,92.10
2023-03-19T06:05:12.603Z,92.10
2023-03-19T06:07:41.104Z,92.10
2023-03-19T06:10:16.652Z,92.10
2023-03-19T06:12:44.980Z,92.10
2023-03-19T06:15:22.944Z,92.10
2023-03-19T06:18:08.844Z,92.20
2023-03-19T06:20:37.828Z,92.20
2023-03-19T06:23:06.717Z,92.20
2023-03-19T06:25:36.125Z,92.20
2023-03-19T06:28:05.932Z,92.20
2023-03-19T06:30:40.264Z,92.20
2023-03-19T06:33:32.469Z,92.60
2023-03-19T06:36:02.058Z,92.30
2023-03-19T06:38:33.758Z,92.30
2023-03-19T06:41:02.852Z,92.40
2023-03-19T06:43:32.419Z,92.30
2023-03-19T06:46:01.684Z,92.40
2023-03-19T06:48:30.356Z,92.40
2023-03-19T06:50:59.402Z,92.40
2023-03-19T06:53:28.334Z,92.50
2023-03-19T06:55:57.259Z,92.40
2023-03-19T06:58:25.941Z,92.70
2023-03-19T07:00:54.655Z,92.40
2023-03-19T07:03:23.379Z,92.40
2023-03-19T07:05:52.359Z,92.50
2023-03-19T07:08:20.820Z,92.40
2023-03-19T07:10:49.717Z,92.60
2023-03-19T07:13:18.108Z,92.60
2023-03-19T07:15:47.558Z,92.60
2023-03-19T07:23:39.539Z,92.80
2023-03-19T07:26:08.490Z,93.10
2023-03-19T07:28:36.940Z,93.20
2023-03-19T07:31:07.312Z,93.20
2023-03-19T07:33:36.323Z,93.20
2023-03-19T07:36:06.170Z,93.30
2023-03-19T07:38:34.468Z,93.30
2023-03-19T07:41:04.093Z,93.60
2023-03-19T07:43:32.469Z,93.70
2023-03-19T07:46:01.447Z,94.10
2023-03-19T07:48:30.126Z,94.60
2023-03-19T07:50:58.941Z,95.20
2023-03-19T07:53:27.381Z,96.10
2023-03-19T07:55:56.616Z,96.90
2023-03-19T07:58:25.211Z,97.60
2023-03-19T08:00:54.666Z,98.40
2023-03-19T08:03:23.096Z,99.40
2023-03-19T08:05:52.661Z,99.90
2023-03-19T08:08:21.207Z,99.90
2023-03-19T08:10:51.042Z,99.90
2023-03-19T08:13:19.676Z,99.90
2023-03-19T08:15:50.375Z,99.90
2023-03-19T08:18:19.049Z,99.90
2023-03-19T08:20:47.960Z,99.90
2023-03-19T08:23:17.663Z,99.90
2023-03-19T08:25:46.417Z,99.90
2023-03-19T08:28:14.884Z,99.90
2023-03-19T08:30:43.595Z,99.90
2023-03-19T08:33:12.226Z,99.90
2023-03-19T08:35:41.652Z,99.90
2023-03-19T08:38:10.661Z,99.90
2023-03-19T08:40:39.393Z,99.90
2023-03-19T08:43:07.995Z,99.90
2023-03-19T08:45:37.415Z,99.90
2023-03-19T08:48:05.917Z,99.90
2023-03-19T08:50:35.100Z,99.90
2023-03-19T08:53:03.807Z,99.90
2023-03-19T08:55:32.655Z,99.90
2023-03-19T08:58:01.279Z,99.90
2023-03-19T09:00:30.057Z,99.90
2023-03-19T09:02:58.651Z,99.90
2023-03-19T09:05:29.713Z,99.90
2023-03-19T09:07:58.406Z,99.90
2023-03-19T09:10:27.212Z,99.90
2023-03-19T09:12:55.872Z,99.90
2023-03-19T09:15:25.001Z,99.90
2023-03-19T09:17:53.425Z,99.90
2023-03-19T09:20:22.165Z,99.90
2023-03-19T09:22:50.753Z,99.90
2023-03-19T09:25:19.656Z,99.90
2023-03-19T09:27:49.450Z,99.90
2023-03-19T09:30:18.208Z,99.90
2023-03-19T09:32:46.701Z,99.90
2023-03-19T09:35:16.121Z,99.90
2023-03-19T09:37:44.613Z,99.90
2023-03-19T09:40:42.130Z,99.90
2023-03-19T09:43:49.582Z,99.90
2023-03-19T09:46:22.886Z,99.90
2023-03-19T09:49:41.567Z,99.90
2023-03-19T09:53:17.403Z,99.90
2023-03-19T09:55:52.646Z,99.90
2023-03-19T09:58:47.942Z,99.90
2023-03-19T10:01:37.417Z,99.90
2023-03-19T10:04:28.085Z,99.90
2023-03-19T10:07:12.861Z,99.90
2023-03-19T10:10:15.244Z,99.90
2023-03-19T10:12:48.998Z,99.70
2023-03-19T10:15:33.189Z,99.80
2023-03-19T10:18:36.957Z,99.80
2023-03-19T10:21:16.409Z,99.70
2023-03-19T10:24:00.655Z,99.70
2023-03-19T10:26:34.705Z,99.50
2023-03-19T10:29:18.991Z,99.30
2023-03-19T10:32:19.166Z,99.20
2023-03-19T10:34:54.089Z,99.10
2023-03-19T10:37:28.691Z,98.80
2023-03-19T10:39:59.279Z,98.70
2023-03-19T10:43:11.350Z,98.60
2023-03-19T10:45:39.887Z,98.50
2023-03-19T10:48:13.114Z,98.30
2023-03-19T10:50:54.070Z,98.10
2023-03-19T10:53:35.339Z,98.20
2023-03-19T10:56:23.343Z,98.10
2023-03-19T10:58:59.027Z,97.90
2023-03-19T11:01:39.991Z,98.00
2023-03-19T11:04:22.801Z,97.70
2023-03-19T11:07:02.618Z,97.80
2023-03-19T11:09:47.048Z,97.60
2023-03-19T11:12:35.112Z,97.60
2023-03-19T11:15:06.924Z,97.50
2023-03-19T11:18:20.034Z,97.40
2023-03-19T11:21:30.622Z,97.30
2023-03-19T11:24:03.443Z,97.30
2023-03-19T11:26:32.721Z,97.40
2023-03-19T11:29:05.195Z,97.40
2023-03-19T11:31:54.722Z,97.30
2023-03-19T11:34:48.855Z,97.30
2023-03-19T11:37:44.753Z,97.30
2023-03-19T11:40:31.923Z,96.50
2023-03-19T11:43:17.894Z,95.60
2023-03-19T11:46:48.349Z,95.50
2023-03-19T11:49:51.050Z,95.70
2023-03-19T11:52:33.727Z,95.80
2023-03-19T11:55:42.619Z,95.90
2023-03-19T11:58:55.638Z,95.60
2023-03-19T12:02:23.756Z,95.20
2023-03-19T12:05:12.615Z,95.50
2023-03-19T12:08:33.496Z,94.70
2023-03-19T12:11:36.267Z,94.40
2023-03-19T12:14:16.858Z,94.20
2023-03-19T12:17:13.567Z,93.90
2023-03-19T12:20:04.535Z,94.20
2023-03-19T12:23:26.769Z,93.90
2023-03-19T12:26:09.055Z,93.50
2023-03-19T12:29:10.196Z,93.20
2023-03-19T12:32:05.490Z,93.10
2023-03-19T12:35:17.106Z,93.40
2023-03-19T12:38:39.222Z,93.10
2023-03-19T12:41:15.266Z,93.20
2023-03-19T12:44:02.036Z,93.60
2023-03-19T12:46:59.261Z,94.50
2023-03-19T12:49:36.484Z,94.70
2023-03-19T12:52:24.468Z,94.90
2023-03-19T12:55:13.464Z,95.00
2023-03-19T12:58:12.325Z,94.90
2023-03-19T13:01:12.656Z,95.00
2023-03-19T13:04:07.364Z,94.90
2023-03-19T13:07:02.283Z,94.90
2023-03-19T13:09:51.245Z,94.90
2023-03-19T13:12:32.362Z,94.70
2023-03-19T13:15:39.219Z,95.30
2023-03-19T13:18:33.590Z,95.50
2023-03-19T13:21:11.641Z,95.50
2023-03-19T13:23:40.393Z,95.40
2023-03-19T13:26:12.894Z,95.50
2023-03-19T13:29:27.726Z,95.20
2023-03-19T13:32:43.866Z,94.80
2023-03-19T13:35:46.826Z,94.50
2023-03-19T13:38:24.515Z,95.10
2023-03-19T13:40:57.654Z,95.30
2023-03-19T13:43:29.570Z,95.50
2023-03-19T13:46:12.392Z,94.50
2023-03-19T13:48:50.760Z,94.20
2023-03-19T13:51:19.235Z,93.80
2023-03-19T13:54:12.991Z,93.30
2023-03-19T13:57:18.777Z,92.90
2023-03-19T13:59:50.638Z,92.30
2023-03-19T14:02:22.160Z,92.70
2023-03-19T14:05:14.409Z,92.90
2023-03-19T14:07:44.078Z,93.30
2023-03-19T14:10:29.890Z,93.30
2023-03-19T14:13:08.643Z,93.60
2023-03-19T14:15:41.084Z,94.00
2023-03-19T14:18:14.538Z,93.90
2023-03-19T14:20:59.357Z,94.20
2023-03-19T14:23:39.633Z,94.50
2023-03-19T14:26:18.130Z,94.60
2023-03-19T14:28:50.358Z,94.80
2023-03-19T14:31:50.516Z,94.50
2023-03-19T14:34:42.048Z,94.70
2023-03-19T14:37:28.633Z,94.90
2023-03-19T14:40:14.914Z,94.90
2023-03-19T14:43:18.118Z,95.00
2023-03-19T14:46:05.310Z,95.60
2023-03-19T14:48:55.523Z,95.40
2023-03-19T14:51:58.768Z,95.20
2023-03-19T14:55:09.179Z,95.10
2023-03-19T14:57:37.846Z,95.00
2023-03-19T15:00:13.162Z,95.10
2023-03-19T15:02:50.241Z,95.00
2023-03-19T15:05:30.830Z,95.00
2023-03-19T15:08:08.059Z,95.00
2023-03-19T15:11:01.092Z,95.30
2023-03-19T15:14:39.105Z,95.50
2023-03-19T15:17:30.108Z,95.70
2023-03-19T15:20:02.319Z,95.50
2023-03-19T15:22:34.981Z,95.70
2023-03-19T15:25:16.494Z,95.60
2023-03-19T15:27:45.971Z,95.90
2023-03-19T15:30:24.826Z,95.90
2023-03-19T15:33:09.109Z,96.20
2023-03-19T15:35:41.244Z,96.40
2023-03-19T15:38:11.547Z,96.60
2023-03-19T15:40:40.999Z,96.40
2023-03-19T15:43:12.005Z,96.70
2023-03-19T15:45:42.148Z,96.60
2023-03-19T15:48:35.111Z,96.90
2023-03-19T15:51:04.249Z,96.60
2023-03-19T15:53:34.314Z,96.80
2023-03-19T15:56:03.791Z,96.80
2023-03-19T15:58:38.839Z,96.70
2023-03-19T16:01:08.615Z,96.90
2023-03-19T16:04:09.107Z,96.80
2023-03-19T16:06:42.259Z,96.80
2023-03-19T16:09:14.228Z,96.80
2023-03-19T16:11:44.352Z,96.80
2023-03-19T16:14:23.229Z,96.80
2023-03-19T16:16:52.616Z,96.80
2023-03-19T16:19:32.784Z,97.20
2023-03-19T16:22:01.747Z,97.30
2023-03-19T16:24:39.209Z,97.50
2023-03-19T16:27:12.787Z,97.50
2023-03-19T16:30:08.901Z,97.60
2023-03-19T16:32:37.573Z,97.80
2023-03-19T16:35:15.651Z,97.90
2023-03-19T16:37:45.058Z,97.90
2023-03-19T16:40:14.294Z,98.00
2023-03-19T16:42:51.218Z,98.20
2023-03-19T16:45:31.356Z,98.20
2023-03-19T16:48:03.700Z,98.30
2023-03-19T16:50:43.701Z,98.30
2023-03-19T16:53:23.005Z,98.30
2023-03-19T16:55:53.326Z,98.40
2023-03-19T16:58:42.899Z,98.40
2023-03-19T17:01:25.532Z,98.50
2023-03-19T17:03:54.309Z,98.50
2023-03-19T17:06:23.249Z,98.60
2023-03-19T17:08:51.798Z,98.60
2023-03-19T17:11:29.990Z,98.70
2023-03-19T17:13:59.244Z,98.70
2023-03-19T17:16:28.516Z,98.70
2023-03-19T17:18:57.248Z,98.70
2023-03-19T17:21:36.128Z,98.80
2023-03-19T17:24:29.635Z,98.70
2023-03-19T17:27:00.885Z,98.80
2023-03-19T17:29:30.653Z,98.80
2023-03-19T17:32:04.372Z,98.80
2023-03-19T17:34:33.333Z,98.90
2023-03-19T17:37:04.151Z,98.80
2023-03-19T17:39:33.065Z,98.90
2023-03-19T17:42:01.845Z,98.80
2023-03-19T17:44:30.257Z,98.80
2023-03-19T17:46:59.095Z,98.70
2023-03-19T17:49:29.451Z,98.80
2023-03-19T17:51:58.645Z,98.90
2023-03-19T17:54:27.451Z,98.90
2023-03-19T17:56:56.362Z,99.10
2023-03-19T17:59:24.872Z,99.20
2023-03-19T18:01:54.019Z,99.20
2023-03-19T18:04:22.695Z,99.40
2023-03-19T18:06:55.752Z,99.70
2023-03-19T18:09:27.157Z,99.90
2023-03-19T18:11:56.357Z,99.90
2023-03-19T18:14:25.003Z,99.90
2023-03-19T18:16:53.765Z,99.90
2023-03-19T18:19:32.967Z,99.90
2023-03-19T18:22:01.902Z,99.90
2023-03-19T18:24:30.477Z,99.90
2023-03-19T18:26:59.240Z,99.90
2023-03-19T18:29:27.666Z,99.90
2023-03-19T18:31:56.441Z,99.90
2023-03-19T18:34:25.032Z,99.90
2023-03-19T18:36:53.897Z,99.90
2023-03-19T18:39:22.361Z,99.90
2023-03-19T18:41:51.308Z,99.90
2023-03-19T18:44:19.876Z,99.90
2023-03-19T18:46:48.693Z,99.90
2023-03-19T18:49:22.347Z,99.90
2023-03-19T18:52:02.017Z,99.90
2023-03-19T18:54:32.103Z,99.90
2023-03-19T18:57:01.322Z,99.90
2023-03-19T18:59:32.905Z,99.90
2023-03-19T19:02:19.782Z,99.90
2023-03-19T19:04:48.739Z,99.90
2023-03-19T19:07:17.795Z,99.90
2023-03-19T19:09:46.529Z,99.90
2023-03-19T19:12:18.278Z,99.90
2023-03-19T19:14:47.459Z,99.90
2023-03-19T19:17:19.497Z,99.90
2023-03-19T19:19:48.021Z,99.90
2023-03-19T19:22:17.857Z,99.90
2023-03-19T19:24:46.449Z,99.90
2023-03-19T19:27:23.146Z,99.90
2023-03-19T19:29:51.675Z,99.90
2023-03-19T19:32:26.463Z,99.90
2023-03-19T19:34:55.136Z,99.90
2023-03-19T19:37:24.212Z,99.90
2023-03-19T19:39:52.843Z,99.90
2023-03-19T19:42:22.475Z,99.90
2023-03-19T19:44:54.827Z,99.90
2023-03-19T19:47:23.676Z,99.90
2023-03-19T19:49:52.132Z,99.90
2023-03-19T19:52:20.995Z,99.90
2023-03-19T19:54:51.945Z,99.90
2023-03-19T19:57:26.989Z,99.90
2023-03-19T19:59:55.846Z,99.90
2023-03-19T20:02:31.278Z,99.90
2023-03-19T20:05:00.028Z,99.90
2023-03-19T20:07:29.169Z,99.90
2023-03-19T20:09:57.799Z,99.90
2023-03-19T20:12:32.293Z,99.90
2023-03-19T20:15:01.738Z,99.90
2023-03-19T20:17:30.955Z,99.90
2023-03-19T20:19:59.478Z,99.90
2023-03-19T20:22:28.294Z,99.90
2023-03-19T20:24:57.892Z,99.90
2023-03-19T20:27:31.212Z,99.90
2023-03-19T20:29:59.793Z,99.90
2023-03-19T20:32:38.033Z,99.90
2023-03-19T20:35:17.553Z,99.90
2023-03-19T20:37:47.286Z,99.90
2023-03-19T20:40:16.190Z,99.90
2023-03-19T20:42:50.598Z,99.90
2023-03-19T20:45:34.665Z,99.90
2023-03-19T20:48:04.448Z,99.90
2023-03-19T20:50:33.734Z,99.90
2023-03-19T20:53:04.039Z,99.90
2023-03-19T20:55:45.247Z,99.90
2023-03-19T20:58:28.980Z,99.90
2023-03-19T21:00:58.767Z,99.90
2023-03-19T21:03:31.858Z,99.90
2023-03-19T21:06:04.457Z,99.90
2023-03-19T21:08:41.294Z,99.90
2023-03-19T21:11:22.335Z,99.90
2023-03-19T21:13:53.473Z,99.90
2023-03-19T21:16:25.515Z,99.90
2023-03-19T21:18:54.625Z,99.90
2023-03-19T21:21:35.524Z,99.90
2023-03-19T21:24:14.478Z,99.90
2023-03-19T21:26:43.242Z,99.90
2023-03-19T21:29:28.775Z,99.90
2023-03-19T21:31:58.152Z,99.90
2023-03-19T21:34:28.781Z,99.90
2023-03-19T21:36:57.540Z,99.90
2023-03-19T21:39:26.520Z,99.90
2023-03-19T21:41:55.115Z,99.90
2023-03-19T21:44:24.856Z,99.90
2023-03-19T21:46:53.532Z,99.90
2023-03-19T21:49:22.936Z,99.90
2023-03-19T21:51:51.626Z,99.90
2023-03-19T21:54:20.683Z,99.90
2023-03-19T21:56:49.462Z,99.90
2023-03-19T21:59:31.979Z,99.90
2023-03-19T22:02:01.766Z,99.90
2023-03-19T22:04:31.237Z,99.90
2023-03-19T22:06:59.873Z,99.90
2023-03-19T22:09:29.264Z,99.90
2023-03-19T22:11:58.052Z,99.90
2023-03-19T22:14:27.192Z,99.90
2023-03-19T22:16:56.600Z,99.90
2023-03-19T22:19:26.116Z,99.90
2023-03-19T22:21:55.723Z,99.90
2023-03-19T22:24:24.731Z,99.90
2023-03-19T22:26:57.385Z,99.90
2023-03-19T22:29:26.523Z,99.90
2023-03-19T22:31:57.889Z,99.90
2023-03-19T22:34:28.222Z,99.90
2023-03-19T22:36:56.867Z,99.90
2023-03-19T22:39:26.034Z,99.90
2023-03-19T22:41:54.819Z,99.90
2023-03-19T22:44:29.841Z,99.90
2023-03-19T22:46:59.734Z,99.90
2023-03-19T22:49:30.122Z,99.90
2023-03-19T22:51:58.903Z,99.90
2023-03-19T22:54:27.910Z,99.90
2023-03-19T22:56:56.614Z,99.90
2023-03-19T22:59:25.708Z,99.90
2023-03-19T23:01:54.427Z,99.90
2023-03-19T23:04:29.850Z,99.90
2023-03-19T23:06:59.464Z,99.90
2023-03-19T23:09:33.901Z,99.90
2023-03-19T23:12:03.371Z,99.90
2023-03-19T23:14:32.480Z,99.90
2023-03-19T23:17:03.991Z,99.90
2023-03-19T23:19:35.603Z,99.90
2023-03-19T23:22:05.842Z,99.90
2023-03-19T23:24:34.944Z,99.90
2023-03-19T23:27:03.956Z,99.90
2023-03-19T23:29:36.870Z,99.90
2023-03-19T23:32:06.197Z,99.90
2023-03-19T23:34:42.451Z,99.90
2023-03-19T23:37:11.277Z,99.90
2023-03-19T23:39:40.238Z,99.90
2023-03-19T23:42:10.195Z,99.90
2023-03-19T23:44:39.097Z,99.90
2023-03-19T23:47:08.832Z,99.90
2023-03-19T23:49:38.062Z,99.90
2023-03-19T23:52:06.724Z,99.90
2023-03-19T23:54:39.547Z,99.90
2023-03-19T23:57:11.723Z,99.90
2023-03-19T23:59:42.593Z,99.90
